createdAt,value
2022-10-21T00:01:05.604Z,40.86
2022-10-21T00:03:33.812Z,40.75
2022-10-21T00:06:02.022Z,41.05
2022-10-21T00:08:30.152Z,41.07
2022-10-21T00:11:00.299Z,41.20
2022-10-21T00:13:32.104Z,41.51
2022-10-21T00:16:01.520Z,41.99
2022-10-21T00:18:29.808Z,42.26
2022-10-21T00:20:57.903Z,42.69
2022-10-21T00:23:26.622Z,42.88
2022-10-21T00:25:58.071Z,42.92
2022-10-21T00:28:26.816Z,42.77
2022-10-21T00:30:58.185Z,43.33
2022-10-21T00:33:28.076Z,43.74
2022-10-21T00:35:59.744Z,44.04
2022-10-21T00:38:27.813Z,44.05
2022-10-21T00:40:56.193Z,44.10
2022-10-21T00:43:24.630Z,44.32
2022-10-21T00:45:57.028Z,44.55
2022-10-21T00:48:35.606Z,44.75
2022-10-21T00:51:07.046Z,44.84
2022-10-21T00:53:36.735Z,44.99
2022-10-21T00:56:14.080Z,44.87
2022-10-21T00:58:47.032Z,45.23
2022-10-21T01:01:19.397Z,45.32
2022-10-21T01:03:50.099Z,45.34
2022-10-21T01:06:21.798Z,45.68
2022-10-21T01:08:50.272Z,45.61
2022-10-21T01:11:22.620Z,46.02
2022-10-21T01:14:10.272Z,45.96
2022-10-21T01:16:48.315Z,46.35
2022-10-21T01:19:52.921Z,46.46
2022-10-21T01:22:38.558Z,46.41
2022-10-21T01:25:30.045Z,46.54
2022-10-21T01:28:09.230Z,46.38
2022-10-21T01:30:41.194Z,46.56
2022-10-21T01:33:24.248Z,46.85
2022-10-21T01:35:59.362Z,47.02
2022-10-21T01:38:35.742Z,47.02
2022-10-21T01:41:13.914Z,47.13
2022-10-21T01:43:51.460Z,46.94
2022-10-21T01:46:28.604Z,47.54
2022-10-21T01:49:01.104Z,47.41
2022-10-21T01:51:29.816Z,46.81
2022-10-21T01:54:03.926Z,46.93
2022-10-21T01:56:33.404Z,47.22
2022-10-21T01:59:04.122Z,46.94
2022-10-21T02:01:34.804Z,47.14
2022-10-21T02:04:05.838Z,47.04
2022-10-21T02:06:34.094Z,47.47
2022-10-21T02:09:02.646Z,47.74
2022-10-21T02:11:32.007Z,47.85
2022-10-21T02:14:05.633Z,47.97
2022-10-21T02:16:38.699Z,48.08
2022-10-21T02:19:13.404Z,47.81
2022-10-21T02:21:41.747Z,47.85
2022-10-21T02:24:18.091Z,48.17
2022-10-21T02:26:46.235Z,47.95
2022-10-21T02:29:15.800Z,47.95
2022-10-21T02:32:09.241Z,48.06
2022-10-21T02:34:49.807Z,48.15
2022-10-21T02:37:27.118Z,48.26
2022-10-21T02:40:01.458Z,47.94
2022-10-21T02:42:34.566Z,48.00
2022-10-21T02:45:03.463Z,48.18
2022-10-21T02:47:33.007Z,47.87
2022-10-21T02:50:01.068Z,47.90
2022-10-21T02:52:29.095Z,48.01
2022-10-21T02:54:57.177Z,48.32
2022-10-21T02:57:25.435Z,48.06
2022-10-21T02:59:53.659Z,48.20
2022-10-21T03:02:21.828Z,48.60
2022-10-21T03:04:51.315Z,48.92
2022-10-21T03:07:19.399Z,48.99
2022-10-21T03:09:47.511Z,48.96
2022-10-21T03:12:15.669Z,49.12
2022-10-21T03:14:43.791Z,49.70
2022-10-21T03:17:11.880Z,49.44
2022-10-21T03:19:39.933Z,49.13
2022-10-21T03:22:09.747Z,49.35
2022-10-21T03:24:37.819Z,49.51
2022-10-21T03:27:05.889Z,50.01
2022-10-21T03:29:34.076Z,49.76
2022-10-21T03:32:02.265Z,49.89
2022-10-21T03:34:30.360Z,49.63
2022-10-21T03:36:58.428Z,49.77
2022-10-21T03:39:27.916Z,49.93
2022-10-21T03:41:56.110Z,49.97
2022-10-21T03:44:24.420Z,50.00
2022-10-21T03:46:52.474Z,50.00
2022-10-21T03:49:21.542Z,49.94
2022-10-21T03:51:50.117Z,49.86
2022-10-21T03:54:18.824Z,49.85
2022-10-21T03:56:48.476Z,50.09
2022-10-21T03:59:16.850Z,50.01
2022-10-21T04:01:45.153Z,50.38
2022-10-21T04:04:13.341Z,50.86
2022-10-21T04:06:41.738Z,50.96
2022-10-21T04:09:09.875Z,50.69
2022-10-21T04:11:37.964Z,50.83
2022-10-21T04:14:11.433Z,50.93
2022-10-21T04:16:43.085Z,50.85
2022-10-21T04:19:17.517Z,51.27
2022-10-21T04:21:45.629Z,51.50
2022-10-21T04:24:14.217Z,51.14
2022-10-21T04:26:43.057Z,51.18
2022-10-21T04:29:12.604Z,51.23
2022-10-21T04:31:40.997Z,51.07
2022-10-21T04:34:09.139Z,51.48
2022-10-21T04:36:37.483Z,51.30
2022-10-21T04:39:05.820Z,51.17
2022-10-21T04:41:34.445Z,51.45
2022-10-21T04:44:02.848Z,51.66
2022-10-21T04:46:32.345Z,51.56
2022-10-21T04:49:00.658Z,51.77
2022-10-21T04:51:29.071Z,51.48
2022-10-21T04:53:57.225Z,51.55
2022-10-21T04:56:25.360Z,51.67
2022-10-21T04:58:53.671Z,51.00
2022-10-21T05:01:21.785Z,50.92
2022-10-21T05:03:51.342Z,50.83
2022-10-21T05:06:19.447Z,50.68
2022-10-21T05:08:47.718Z,50.44
2022-10-21T05:11:16.255Z,49.85
2022-10-21T05:13:44.344Z,49.57
2022-10-21T05:16:12.504Z,48.61
2022-10-21T05:18:40.766Z,48.11
2022-10-21T05:21:10.295Z,47.12
2022-10-21T05:23:38.418Z,46.72
2022-10-21T05:26:06.781Z,46.60
2022-10-21T05:28:34.975Z,46.48
2022-10-21T05:31:03.386Z,46.82
2022-10-21T05:33:31.519Z,47.15
2022-10-21T05:36:01.909Z,47.35
2022-10-21T05:38:31.992Z,47.29
2022-10-21T05:41:01.721Z,47.44
2022-10-21T05:43:29.856Z,47.18
2022-10-21T05:45:58.119Z,47.33
2022-10-21T05:48:26.680Z,46.95
2022-10-21T05:50:56.428Z,47.04
2022-10-21T05:53:25.594Z,46.56
2022-10-21T05:55:58.924Z,46.44
2022-10-21T05:58:27.987Z,47.37
2022-10-21T06:00:56.678Z,47.01
2022-10-21T06:03:25.423Z,46.96
2022-10-21T06:05:53.616Z,47.09
2022-10-21T06:08:21.676Z,46.95
2022-10-21T06:10:49.815Z,46.72
2022-10-21T06:13:19.402Z,46.90
2022-10-21T06:15:48.833Z,46.92
2022-10-21T06:18:19.137Z,45.86
2022-10-21T06:20:47.306Z,45.93
2022-10-21T06:23:16.463Z,46.44
2022-10-21T06:25:45.401Z,45.89
2022-10-21T06:28:13.543Z,46.78
2022-10-21T06:30:43.064Z,45.85
2022-10-21T06:33:11.138Z,45.65
2022-10-21T06:35:39.854Z,45.79
2022-10-21T06:38:08.259Z,45.58
2022-10-21T06:40:36.552Z,45.20
2022-10-21T06:43:04.684Z,45.29
2022-10-21T06:45:32.803Z,44.83
2022-10-21T06:48:02.405Z,44.94
2022-10-21T06:50:30.700Z,44.89
2022-10-21T06:52:58.824Z,44.27
2022-10-21T06:55:26.943Z,43.61
2022-10-21T06:57:55.191Z,43.90
2022-10-21T07:00:23.456Z,44.00
2022-10-21T07:02:51.591Z,44.02
2022-10-21T07:05:21.266Z,46.01
2022-10-21T07:07:49.352Z,50.83
2022-10-21T07:10:17.703Z,52.66
2022-10-21T07:12:46.788Z,52.54
2022-10-21T07:15:15.260Z,53.22
2022-10-21T07:17:43.336Z,52.90
2022-10-21T07:20:11.929Z,52.48
2022-10-21T07:22:41.585Z,52.56
2022-10-21T07:25:10.118Z,53.07
2022-10-21T07:27:38.481Z,52.05
2022-10-21T07:30:07.349Z,52.31
2022-10-21T07:32:35.512Z,52.50
2022-10-21T07:35:03.793Z,52.62
2022-10-21T07:37:31.904Z,52.34
2022-10-21T07:40:01.640Z,50.72
2022-10-21T07:42:30.305Z,50.33
2022-10-21T07:45:01.402Z,50.61
2022-10-21T07:47:29.477Z,50.60
2022-10-21T07:49:57.720Z,50.50
2022-10-21T07:52:25.870Z,50.31
2022-10-21T07:54:54.248Z,49.84
2022-10-21T07:57:23.965Z,50.28
2022-10-21T07:59:52.073Z,50.00
2022-10-21T08:02:20.149Z,49.75
2022-10-21T08:04:48.372Z,48.88
2022-10-21T08:07:16.634Z,47.75
2022-10-21T08:09:44.680Z,47.30
2022-10-21T08:12:15.222Z,48.10
2022-10-21T08:14:45.273Z,48.67
2022-10-21T08:17:13.368Z,48.72
2022-10-21T08:19:41.495Z,48.05
2022-10-21T08:22:09.751Z,47.89
2022-10-21T08:24:41.401Z,48.02
2022-10-21T08:27:10.596Z,47.21
2022-10-21T08:29:40.079Z,48.22
2022-10-21T08:32:10.106Z,48.65
2022-10-21T08:34:38.389Z,49.16
2022-10-21T08:37:06.463Z,47.64
2022-10-21T08:39:34.551Z,46.21
2022-10-21T08:42:14.329Z,45.60
2022-10-21T08:44:56.568Z,45.27
2022-10-21T08:47:34.357Z,45.43
2022-10-21T08:50:05.932Z,45.91
2022-10-21T08:52:42.042Z,45.52
2022-10-21T08:55:18.106Z,45.98
2022-10-21T08:57:47.277Z,45.71
2022-10-21T09:00:18.138Z,46.33
2022-10-21T09:03:03.342Z,46.13
2022-10-21T09:05:45.453Z,46.28
2022-10-21T09:08:26.422Z,46.58
2022-10-21T09:11:02.593Z,46.25
2022-10-21T09:13:55.476Z,46.03
2022-10-21T09:16:30.345Z,46.08
2022-10-21T09:19:14.330Z,46.00
2022-10-21T09:22:10.559Z,45.23
2022-10-21T09:24:54.104Z,45.95
2022-10-21T09:27:31.951Z,45.85
2022-10-21T09:30:10.451Z,45.50
2022-10-21T09:32:42.241Z,45.90
2022-10-21T09:35:19.431Z,45.49
2022-10-21T09:37:53.014Z,45.43
2022-10-21T09:40:23.538Z,45.26
2022-10-21T09:42:55.881Z,44.66
2022-10-21T09:45:29.696Z,45.08
2022-10-21T09:48:00.650Z,45.62
2022-10-21T09:53:06.066Z,46.77
2022-10-21T09:55:34.684Z,46.81
2022-10-21T09:58:04.414Z,46.44
2022-10-21T10:00:48.298Z,46.99
2022-10-21T10:03:32.525Z,47.43
2022-10-21T10:06:03.352Z,46.84
2022-10-21T10:08:35.653Z,47.10
2022-10-21T10:11:17.003Z,44.29
2022-10-21T10:13:47.505Z,46.21
2022-10-21T10:16:22.360Z,46.86
2022-10-21T10:18:51.804Z,46.91
2022-10-21T10:21:22.201Z,47.06
2022-10-21T10:23:52.655Z,46.05
2022-10-21T10:26:30.750Z,46.74
2022-10-21T10:29:04.669Z,46.82
2022-10-21T10:31:35.245Z,46.16
2022-10-21T10:34:05.920Z,46.00
2022-10-21T10:36:38.646Z,46.84
2022-10-21T10:39:10.149Z,46.91
2022-10-21T10:41:40.913Z,46.75
2022-10-21T10:44:27.221Z,45.53
2022-10-21T10:46:57.317Z,45.33
2022-10-21T10:49:26.937Z,46.26
2022-10-21T10:52:24.501Z,46.34
2022-10-21T10:55:16.088Z,46.54
2022-10-21T10:57:59.026Z,46.64
2022-10-21T11:00:41.828Z,46.05
2022-10-21T11:03:15.992Z,46.33
2022-10-21T11:05:46.372Z,46.36
2022-10-21T11:08:19.416Z,45.17
2022-10-21T11:10:51.086Z,44.12
2022-10-21T11:13:21.710Z,45.00
2022-10-21T11:16:02.584Z,45.04
2022-10-21T11:18:36.452Z,45.23
2022-10-21T11:21:20.448Z,44.72
2022-10-21T11:24:16.515Z,44.71
2022-10-21T11:26:54.479Z,45.46
2022-10-21T11:29:34.832Z,44.70
2022-10-21T11:32:12.895Z,44.49
2022-10-21T11:34:52.767Z,46.01
2022-10-21T11:37:30.758Z,45.14
2022-10-21T11:40:12.101Z,44.94
2022-10-21T11:42:44.198Z,45.74
2022-10-21T11:45:29.857Z,45.23
2022-10-21T11:48:05.576Z,45.08
2022-10-21T11:50:42.216Z,45.29
2022-10-21T11:53:21.792Z,44.68
2022-10-21T11:56:00.765Z,44.56
2022-10-21T11:58:39.535Z,46.66
2022-10-21T12:01:30.941Z,47.49
2022-10-21T12:04:34.492Z,46.67
2022-10-21T12:07:14.095Z,46.28
2022-10-21T12:09:49.194Z,47.43
2022-10-21T12:12:22.974Z,47.88
2022-10-21T12:14:56.759Z,47.94
2022-10-21T12:17:25.898Z,46.70
2022-10-21T12:19:58.759Z,46.32
2022-10-21T12:22:29.394Z,46.56
2022-10-21T12:25:03.391Z,47.58
2022-10-21T12:27:41.172Z,47.23
2022-10-21T12:30:22.081Z,46.40
2022-10-21T12:33:08.791Z,46.21
2022-10-21T12:35:46.193Z,47.26
2022-10-21T12:38:26.793Z,48.10
2022-10-21T12:41:27.342Z,48.05
2022-10-21T12:44:03.911Z,48.59
2022-10-21T12:46:39.219Z,47.07
2022-10-21T12:49:21.648Z,47.47
2022-10-21T12:51:52.634Z,47.95
2022-10-21T12:54:26.548Z,48.75
2022-10-21T12:57:03.696Z,48.97
2022-10-21T12:59:36.890Z,49.46
2022-10-21T13:02:28.391Z,48.58
2022-10-21T13:04:58.961Z,48.03
2022-10-21T13:07:35.367Z,48.16
2022-10-21T13:10:36.085Z,48.94
2022-10-21T13:13:29.832Z,48.80
2022-10-21T13:16:00.476Z,49.38
2022-10-21T13:18:54.310Z,48.66
2022-10-21T13:21:31.384Z,49.04
2022-10-21T13:24:06.824Z,49.16
2022-10-21T13:26:39.972Z,49.73
2022-10-21T13:29:42.264Z,48.77
2022-10-21T13:32:36.924Z,47.74
2022-10-21T13:35:28.795Z,47.72
2022-10-21T13:38:00.730Z,48.70
2022-10-21T13:40:34.505Z,50.03
2022-10-21T13:43:09.603Z,50.76
2022-10-21T13:45:43.252Z,51.08
2022-10-21T13:48:16.529Z,50.59
2022-10-21T13:50:46.792Z,51.67
2022-10-21T13:53:30.435Z,52.00
2022-10-21T13:56:01.642Z,52.39
2022-10-21T13:58:32.156Z,49.75
2022-10-21T14:01:09.010Z,49.87
2022-10-21T14:03:38.987Z,50.66
2022-10-21T14:06:09.667Z,50.23
2022-10-21T14:08:42.029Z,51.01
2022-10-21T14:11:16.209Z,51.78
2022-10-21T14:13:45.038Z,51.98
2022-10-21T14:16:23.792Z,52.77
2022-10-21T14:18:55.015Z,53.59
2022-10-21T14:21:26.500Z,53.86
2022-10-21T14:23:54.867Z,53.67
2022-10-21T14:26:23.471Z,53.70
2022-10-21T14:28:52.199Z,53.56
2022-10-21T14:31:20.561Z,54.26
2022-10-21T14:33:49.823Z,53.81
2022-10-21T14:36:21.418Z,54.11
2022-10-21T14:38:55.803Z,54.04
2022-10-21T14:41:27.849Z,54.05
2022-10-21T14:43:57.697Z,54.48
2022-10-21T14:46:25.940Z,54.69
2022-10-21T14:48:59.618Z,56.25
2022-10-21T14:51:30.549Z,56.11
2022-10-21T14:54:00.942Z,56.14
2022-10-21T14:56:34.010Z,56.30
2022-10-21T14:59:18.685Z,57.25
2022-10-21T15:01:47.344Z,57.82
2022-10-21T15:04:43.464Z,59.15
2022-10-21T15:07:29.040Z,59.37
2022-10-21T15:10:14.778Z,60.86
2022-10-21T15:12:44.086Z,61.60
2022-10-21T15:15:52.476Z,61.67
2022-10-21T15:18:24.794Z,61.89
2022-10-21T15:20:55.816Z,63.03
2022-10-21T15:23:29.201Z,63.66
2022-10-21T15:26:01.058Z,64.10
2022-10-21T15:28:32.381Z,64.63
2022-10-21T15:31:02.478Z,65.02
2022-10-21T15:33:31.489Z,65.16
2022-10-21T15:36:05.253Z,65.85
2022-10-21T15:38:34.899Z,66.88
2022-10-21T15:41:03.531Z,67.18
2022-10-21T15:43:31.735Z,67.31
2022-10-21T15:45:59.815Z,68.43
2022-10-21T15:48:28.250Z,68.07
2022-10-21T15:50:58.659Z,68.66
2022-10-21T15:53:27.179Z,68.58
2022-10-21T15:55:57.024Z,68.97
2022-10-21T15:58:25.227Z,68.18
2022-10-21T16:00:53.551Z,68.61
2022-10-21T16:03:22.929Z,68.46
2022-10-21T16:05:51.619Z,68.67
2022-10-21T16:08:19.818Z,68.89
2022-10-21T16:10:50.055Z,68.85
2022-10-21T16:13:19.647Z,69.80
2022-10-21T16:15:47.804Z,70.50
2022-10-21T16:18:17.023Z,70.40
2022-10-21T16:20:45.156Z,71.05
2022-10-21T16:23:13.338Z,71.23
2022-10-21T16:25:41.419Z,71.50
2022-10-21T16:28:12.335Z,72.34
2022-10-21T16:30:42.284Z,72.37
2022-10-21T16:33:11.304Z,73.61
2022-10-21T16:35:39.697Z,73.68
2022-10-21T16:38:07.818Z,73.30
2022-10-21T16:40:36.798Z,73.55
2022-10-21T16:43:05.003Z,73.72
2022-10-21T16:45:34.267Z,73.20
2022-10-21T16:48:06.223Z,73.30
2022-10-21T16:50:39.730Z,73.22
2022-10-21T16:53:08.330Z,73.11
2022-10-21T16:55:36.512Z,73.39
2022-10-21T16:58:04.887Z,73.99
2022-10-21T17:00:33.177Z,73.98
2022-10-21T17:03:01.640Z,74.07
2022-10-21T17:05:31.660Z,74.13
2022-10-21T17:08:00.115Z,74.08
2022-10-21T17:10:28.389Z,74.14
2022-10-21T17:12:59.383Z,74.24
2022-10-21T17:15:28.942Z,74.85
2022-10-21T17:17:57.322Z,75.05
2022-10-21T17:20:30.286Z,73.51
2022-10-21T17:23:00.377Z,73.28
2022-10-21T17:25:30.259Z,73.00
2022-10-21T17:27:58.559Z,72.61
2022-10-21T17:30:26.883Z,72.51
2022-10-21T17:32:55.532Z,72.50
2022-10-21T17:35:23.881Z,72.90
2022-10-21T17:37:53.395Z,73.60
2022-10-21T17:40:25.669Z,74.44
2022-10-21T17:42:53.946Z,74.71
2022-10-21T17:45:23.146Z,74.85
2022-10-21T17:47:52.870Z,74.19
2022-10-21T17:50:23.807Z,73.49
2022-10-21T17:52:53.509Z,73.02
2022-10-21T17:55:23.556Z,73.17
2022-10-21T17:57:51.608Z,73.64
2022-10-21T18:00:19.845Z,73.58
2022-10-21T18:02:48.013Z,72.35
2022-10-21T18:05:16.317Z,71.67
2022-10-21T18:07:44.448Z,71.37
2022-10-21T18:10:12.542Z,72.04
2022-10-21T18:12:42.115Z,73.27
2022-10-21T18:15:11.201Z,73.43
2022-10-21T18:17:40.091Z,73.37
2022-10-21T18:20:09.804Z,73.88
2022-10-21T18:22:38.170Z,74.34
2022-10-21T18:25:07.221Z,74.88
2022-10-21T18:27:35.374Z,75.30
2022-10-21T18:30:06.527Z,75.18
2022-10-21T18:32:35.051Z,74.33
2022-10-21T18:35:03.227Z,74.46
2022-10-21T18:37:32.956Z,73.79
2022-10-21T18:40:01.028Z,74.24
2022-10-21T18:42:29.544Z,74.88
2022-10-21T18:44:57.697Z,75.55
2022-10-21T18:47:28.142Z,74.65
2022-10-21T18:49:56.226Z,74.17
2022-10-21T18:52:24.445Z,74.34
2022-10-21T18:54:52.626Z,74.21
2022-10-21T18:57:20.808Z,74.52
2022-10-21T18:59:48.879Z,74.53
2022-10-21T19:02:21.450Z,74.45
2022-10-21T19:04:51.467Z,74.46
2022-10-21T19:07:19.984Z,74.77
2022-10-21T19:09:48.137Z,75.42
2022-10-21T19:12:19.640Z,75.62
2022-10-21T19:14:51.036Z,75.45
2022-10-21T19:17:19.910Z,75.23
2022-10-21T19:19:48.072Z,76.12
2022-10-21T19:22:18.578Z,75.80
2022-10-21T19:24:46.763Z,75.78
2022-10-21T19:27:15.318Z,76.47
2022-10-21T19:29:44.320Z,77.17
2022-10-21T19:32:13.624Z,79.22
2022-10-21T19:34:41.785Z,79.69
2022-10-21T19:37:10.692Z,80.11
2022-10-21T19:39:40.747Z,80.63
2022-10-21T19:42:09.330Z,80.41
2022-10-21T19:44:37.691Z,80.21
2022-10-21T19:47:05.901Z,79.95
2022-10-21T19:49:34.127Z,79.81
2022-10-21T19:52:03.245Z,80.37
2022-10-21T19:54:31.421Z,80.27
2022-10-21T19:57:01.019Z,80.66
2022-10-21T19:59:29.230Z,80.56
2022-10-21T20:01:57.313Z,80.65
2022-10-21T20:04:25.549Z,80.65
2022-10-21T20:06:53.782Z,80.83
2022-10-21T20:09:21.855Z,81.50
2022-10-21T20:11:49.923Z,81.96
2022-10-21T20:14:19.671Z,82.43
2022-10-21T20:16:50.418Z,82.93
2022-10-21T20:19:18.675Z,82.64
2022-10-21T20:21:46.984Z,82.93
2022-10-21T20:24:16.844Z,83.85
2022-10-21T20:26:49.297Z,83.73
2022-10-21T20:29:17.862Z,83.92
2022-10-21T20:31:47.350Z,83.52
2022-10-21T20:34:15.561Z,83.31
2022-10-21T20:36:45.006Z,83.04
2022-10-21T20:39:13.653Z,82.72
2022-10-21T20:41:42.048Z,82.75
2022-10-21T20:44:13.411Z,82.17
2022-10-21T20:46:41.562Z,82.20
2022-10-21T20:49:11.493Z,81.94
2022-10-21T20:51:42.596Z,81.52
2022-10-21T20:54:14.628Z,81.60
2022-10-21T20:56:43.352Z,81.72
2022-10-21T20:59:15.227Z,81.93
2022-10-21T21:01:45.674Z,81.95
2022-10-21T21:04:20.812Z,82.02
2022-10-21T21:06:51.108Z,81.52
2022-10-21T21:12:10.290Z,81.23
2022-10-21T21:14:38.453Z,81.01
2022-10-21T21:17:07.110Z,81.00
2022-10-21T21:19:36.815Z,81.37
2022-10-21T21:22:05.161Z,81.53
2022-10-21T21:24:33.657Z,81.80
2022-10-21T21:27:02.030Z,81.65
2022-10-21T21:29:30.169Z,81.66
2022-10-21T21:31:58.720Z,81.61
2022-10-21T21:34:26.887Z,81.92
2022-10-21T21:36:56.654Z,81.54
2022-10-21T21:39:25.001Z,81.35
2022-10-21T21:41:53.342Z,81.14
2022-10-21T21:44:21.736Z,81.07
2022-10-21T21:46:49.868Z,80.62
2022-10-21T21:49:18.386Z,80.74
2022-10-21T21:51:46.588Z,80.22
2022-10-21T21:54:16.193Z,80.17
2022-10-21T21:56:44.611Z,78.96
2022-10-21T21:59:12.683Z,78.58
2022-10-21T22:01:40.860Z,78.29
2022-10-21T22:04:09.133Z,78.43
2022-10-21T22:06:39.395Z,78.05
2022-10-21T22:09:11.758Z,77.82
2022-10-21T22:11:41.575Z,77.55
2022-10-21T22:14:09.688Z,77.32
2022-10-21T22:16:38.097Z,77.57
2022-10-21T22:19:06.206Z,78.18
2022-10-21T22:21:34.365Z,78.76
2022-10-21T22:24:02.447Z,79.15
2022-10-21T22:26:30.800Z,79.47
2022-10-21T22:29:00.895Z,79.22
2022-10-21T22:31:30.582Z,79.45
2022-10-21T22:34:00.689Z,79.35
2022-10-21T22:36:29.265Z,79.73
2022-10-21T22:38:57.330Z,79.84
2022-10-21T22:41:25.449Z,79.62
2022-10-21T22:43:53.643Z,79.32
2022-10-21T22:46:38.903Z,78.98
2022-10-21T22:49:07.390Z,79.03
2022-10-21T22:51:35.852Z,78.65
2022-10-21T22:54:05.618Z,78.87
2022-10-21T22:56:39.160Z,79.35
2022-10-21T22:59:07.196Z,78.81
2022-10-21T23:01:36.650Z,78.99
2022-10-21T23:04:05.063Z,79.73
2022-10-21T23:06:34.339Z,79.78
2022-10-21T23:09:04.505Z,79.16
2022-10-21T23:11:33.025Z,78.86
2022-10-21T23:14:03.352Z,79.19
2022-10-21T23:16:38.294Z,79.25
2022-10-21T23:19:07.816Z,78.92
2022-10-21T23:21:36.303Z,79.76
2022-10-21T23:24:04.691Z,80.11
2022-10-21T23:26:32.957Z,80.90
2022-10-21T23:29:00.998Z,80.84
2022-10-21T23:31:29.119Z,80.64
2022-10-21T23:33:58.587Z,80.27
2022-10-21T23:36:26.907Z,80.00
2022-10-21T23:38:56.013Z,79.76
2022-10-21T23:41:24.805Z,79.51
2022-10-21T23:43:52.941Z,79.38
2022-10-21T23:46:22.518Z,79.23
2022-10-21T23:48:50.640Z,79.09
2022-10-21T23:51:20.538Z,78.56
2022-10-21T23:53:48.673Z,78.82
2022-10-21T23:56:16.806Z,78.67
2022-10-21T23:58:45.019Z,78.41
